createdAt,value
2022-12-18T00:04:32.903Z,-1.82
2022-12-18T00:09:40.325Z,-1.85
2022-12-18T00:14:45.129Z,-1.86
2022-12-18T00:19:46.900Z,-1.82
2022-12-18T00:24:49.438Z,-1.76
2022-12-18T00:29:51.309Z,-1.79
2022-12-18T00:34:53.208Z,-1.74
2022-12-18T00:39:55.043Z,-1.73
2022-12-18T00:44:56.814Z,-1.72
2022-12-18T00:49:58.724Z,-1.73
2022-12-18T00:55:05.862Z,-1.69
2022-12-18T01:00:11.945Z,-1.61
2022-12-18T01:05:14.916Z,-1.56
2022-12-18T01:10:16.797Z,-1.56
2022-12-18T01:15:19.957Z,-1.60
2022-12-18T01:20:21.854Z,-1.56
2022-12-18T01:25:23.643Z,-1.56
2022-12-18T01:30:26.470Z,-1.61
2022-12-18T01:35:28.537Z,-1.57
2022-12-18T01:40:30.334Z,-1.49
2022-12-18T01:45:33.229Z,-1.47
2022-12-18T01:50:39.549Z,-1.44
2022-12-18T01:55:46.461Z,-1.45
2022-12-18T02:00:48.463Z,-1.42
2022-12-18T02:06:12.976Z,-1.40
2022-12-18T02:11:19.877Z,-1.41
2022-12-18T02:16:47.944Z,-1.49
2022-12-18T02:22:03.456Z,-1.24
2022-12-18T02:27:10.147Z,-0.78
2022-12-18T02:32:18.669Z,-0.56
2022-12-18T02:37:22.588Z,-0.42
2022-12-18T02:42:25.451Z,-0.31
2022-12-18T02:47:32.365Z,-0.24
2022-12-18T02:52:56.205Z,-0.17
2022-12-18T02:58:33.654Z,-0.23
2022-12-18T03:03:48.634Z,-0.30
2022-12-18T03:08:55.179Z,-0.25
2022-12-18T03:14:00.399Z,-0.09
2022-12-18T03:19:17.045Z,-0.02
2022-12-18T03:24:21.349Z,-0.22
2022-12-18T03:29:37.049Z,-0.25
2022-12-18T03:34:43.781Z,-0.23
2022-12-18T03:39:47.712Z,-0.29
2022-12-18T03:45:11.195Z,-0.28
2022-12-18T03:50:28.342Z,-0.18
2022-12-18T03:55:35.656Z,-0.18
2022-12-18T04:00:40.166Z,-0.24
2022-12-18T04:05:45.082Z,-0.20
2022-12-18T04:10:47.742Z,-0.25
2022-12-18T04:15:49.715Z,-0.17
2022-12-18T04:20:52.823Z,-0.09
2022-12-18T04:25:55.234Z,-0.02
2022-12-18T04:31:09.433Z,0.05
2022-12-18T04:36:13.372Z,0.05
2022-12-18T04:41:15.728Z,0.12
2022-12-18T04:46:18.756Z,0.17
2022-12-18T04:51:26.121Z,0.19
2022-12-18T04:56:28.552Z,0.20
2022-12-18T05:01:34.553Z,0.49
2022-12-18T05:06:37.128Z,0.59
2022-12-18T05:11:38.964Z,0.62
2022-12-18T05:16:40.910Z,0.55
2022-12-18T05:21:42.682Z,0.42
2022-12-18T05:26:44.610Z,0.36
2022-12-18T05:31:46.394Z,0.32
2022-12-18T05:36:48.195Z,0.23
2022-12-18T05:41:50.105Z,0.26
2022-12-18T05:46:52.038Z,0.20
2022-12-18T05:51:53.925Z,0.18
2022-12-18T05:56:55.851Z,0.33
2022-12-18T06:01:57.732Z,0.15
2022-12-18T06:06:59.663Z,-0.31
2022-12-18T06:12:01.559Z,-0.78
2022-12-18T06:17:03.398Z,-1.10
2022-12-18T06:22:05.215Z,-1.30
2022-12-18T06:27:07.055Z,-1.36
2022-12-18T06:32:09.520Z,-1.45
2022-12-18T06:37:11.417Z,-1.53
2022-12-18T06:42:13.532Z,-1.55
2022-12-18T06:47:15.505Z,-1.58
2022-12-18T06:52:17.430Z,-1.56
2022-12-18T06:57:19.244Z,-1.55
2022-12-18T07:02:21.172Z,-1.53
2022-12-18T07:07:23.263Z,-1.49
2022-12-18T07:12:25.159Z,-1.42
2022-12-18T07:17:27.377Z,-1.38
2022-12-18T07:22:29.159Z,-1.39
2022-12-18T07:27:30.980Z,-1.36
2022-12-18T07:32:32.952Z,-1.31
2022-12-18T07:37:34.852Z,-1.16
2022-12-18T07:42:37.943Z,-1.05
2022-12-18T07:47:42.207Z,-0.94
2022-12-18T07:52:43.959Z,-0.82
2022-12-18T07:57:51.278Z,-0.72
2022-12-18T08:02:54.643Z,-0.76
2022-12-18T08:07:57.265Z,-0.95
2022-12-18T08:13:04.667Z,-0.75
2022-12-18T08:18:11.337Z,-0.25
2022-12-18T08:23:15.833Z,-0.22
2022-12-18T08:28:18.215Z,-0.35
2022-12-18T08:33:20.123Z,-0.45
2022-12-18T08:38:22.084Z,-0.50
2022-12-18T08:43:42.939Z,-0.47
2022-12-18T08:48:45.153Z,-0.49
2022-12-18T08:53:47.343Z,-0.46
2022-12-18T08:58:53.128Z,-0.46
2022-12-18T09:03:55.003Z,-0.61
2022-12-18T09:08:58.412Z,-0.52
2022-12-18T09:14:01.888Z,-0.35
2022-12-18T09:19:05.478Z,-0.24
2022-12-18T09:24:08.514Z,-0.19
2022-12-18T09:29:11.099Z,-0.07
2022-12-18T09:34:13.300Z,0.04
2022-12-18T09:39:15.313Z,0.14
2022-12-18T09:44:44.462Z,0.13
2022-12-18T09:49:51.174Z,0.28
2022-12-18T09:55:00.300Z,0.41
2022-12-18T10:00:22.819Z,0.56
2022-12-18T10:05:44.820Z,0.70
2022-12-18T10:11:11.887Z,0.81
2022-12-18T10:16:42.943Z,0.85
2022-12-18T10:22:14.211Z,0.88
2022-12-18T10:27:22.992Z,1.02
2022-12-18T10:32:27.869Z,1.03
2022-12-18T10:37:31.020Z,1.04
2022-12-18T10:42:32.819Z,1.29
2022-12-18T10:47:35.513Z,1.39
2022-12-18T10:52:40.807Z,1.33
2022-12-18T10:57:45.376Z,1.17
2022-12-18T11:02:47.451Z,1.02
2022-12-18T11:07:51.589Z,0.97
2022-12-18T11:12:53.404Z,0.84
2022-12-18T11:17:55.346Z,0.84
2022-12-18T11:23:06.613Z,0.78
2022-12-18T11:28:30.294Z,0.72
2022-12-18T11:33:32.149Z,0.73
2022-12-18T11:38:38.453Z,0.65
2022-12-18T11:43:55.256Z,0.67
2022-12-18T11:49:05.865Z,0.77
2022-12-18T11:54:14.828Z,0.79
2022-12-18T11:59:26.777Z,0.83
2022-12-18T12:04:41.556Z,0.90
2022-12-18T12:09:58.805Z,0.92
2022-12-18T12:15:38.972Z,0.93
2022-12-18T12:20:53.994Z,1.00
2022-12-18T12:26:13.505Z,0.93
2022-12-18T12:31:44.537Z,0.93
2022-12-18T12:37:21.873Z,0.92
2022-12-18T12:42:59.386Z,0.90
2022-12-18T12:48:04.929Z,0.89
2022-12-18T12:53:16.096Z,0.88
2022-12-18T12:58:34.944Z,0.83
2022-12-18T13:04:04.874Z,0.91
2022-12-18T13:09:07.045Z,0.74
2022-12-18T13:14:25.267Z,0.57
2022-12-18T13:19:27.676Z,0.48
2022-12-18T13:24:32.269Z,0.41
2022-12-18T13:29:46.866Z,0.36
2022-12-18T13:34:49.604Z,0.31
2022-12-18T13:39:51.350Z,0.24
2022-12-18T13:44:53.124Z,0.13
2022-12-18T13:49:58.206Z,0.04
2022-12-18T13:55:03.839Z,-0.07
2022-12-18T14:00:24.250Z,-0.23
2022-12-18T14:05:32.189Z,-0.42
2022-12-18T14:10:48.005Z,-0.58
2022-12-18T14:15:52.350Z,-0.73
2022-12-18T14:21:00.206Z,-0.89
2022-12-18T14:26:06.171Z,-1.08
2022-12-18T14:31:19.311Z,-1.31
2022-12-18T14:36:24.568Z,-1.53
2022-12-18T14:41:27.347Z,-1.75
2022-12-18T14:46:36.690Z,-1.96
2022-12-18T14:51:38.484Z,-2.17
2022-12-18T14:56:47.117Z,-2.40
2022-12-18T15:02:02.848Z,-2.63
2022-12-18T15:07:05.756Z,-2.83
2022-12-18T15:12:25.828Z,-3.03
2022-12-18T15:17:28.202Z,-3.23
2022-12-18T15:22:38.948Z,-3.44
2022-12-18T15:27:47.644Z,-3.66
2022-12-18T15:32:50.666Z,-3.86
2022-12-18T15:37:53.276Z,-4.01
2022-12-18T15:43:14.859Z,-4.14
2022-12-18T15:48:23.786Z,-4.27
2022-12-18T15:53:30.487Z,-4.39
2022-12-18T15:58:32.279Z,-4.50
2022-12-18T16:03:34.147Z,-4.60
2022-12-18T16:08:36.120Z,-4.69
2022-12-18T16:13:38.223Z,-4.79
2022-12-18T16:18:40.814Z,-4.84
2022-12-18T16:23:42.883Z,-4.90
2022-12-18T16:28:48.372Z,-5.00
2022-12-18T16:33:50.478Z,-5.11
2022-12-18T16:38:52.272Z,-5.22
2022-12-18T16:43:55.103Z,-5.30
2022-12-18T16:49:00.900Z,-5.38
2022-12-18T16:54:07.985Z,-5.51
2022-12-18T16:59:13.352Z,-5.67
2022-12-18T17:04:17.062Z,-5.82
2022-12-18T17:09:26.141Z,-5.98
2022-12-18T17:14:27.947Z,-6.16
2022-12-18T17:19:29.898Z,-6.35
2022-12-18T17:24:35.015Z,-6.49
2022-12-18T17:29:41.149Z,-6.62
2022-12-18T17:34:47.166Z,-6.71
2022-12-18T17:39:49.014Z,-6.77
2022-12-18T17:44:50.863Z,-6.82
2022-12-18T17:49:52.640Z,-6.89
2022-12-18T17:54:55.353Z,-6.98
2022-12-18T17:59:57.189Z,-7.08
2022-12-18T18:04:58.951Z,-7.19
2022-12-18T18:10:00.730Z,-7.30
2022-12-18T18:15:02.630Z,-7.41
2022-12-18T18:20:06.192Z,-7.49
2022-12-18T18:25:09.413Z,-7.58
2022-12-18T18:30:12.714Z,-7.66
2022-12-18T18:35:37.542Z,-7.73
2022-12-18T18:40:36.239Z,-7.77
2022-12-18T18:45:38.314Z,-7.78
2022-12-18T18:50:44.006Z,-7.68
2022-12-18T18:55:49.135Z,-7.63
2022-12-18T19:01:05.518Z,-7.57
2022-12-18T19:06:09.442Z,-7.52
2022-12-18T19:11:36.108Z,-7.54
2022-12-18T19:16:39.465Z,-7.58
2022-12-18T19:21:41.627Z,-7.47
2022-12-18T19:26:43.814Z,-7.39
2022-12-18T19:31:45.791Z,-7.37
2022-12-18T19:36:48.633Z,-7.35
2022-12-18T19:41:51.896Z,-7.35
2022-12-18T19:46:53.789Z,-7.39
2022-12-18T19:51:55.653Z,-7.53
2022-12-18T19:56:57.459Z,-7.60
2022-12-18T20:01:59.377Z,-7.65
2022-12-18T20:07:01.727Z,-7.68
2022-12-18T20:12:04.264Z,-7.71
2022-12-18T20:17:06.160Z,-7.80
2022-12-18T20:22:08.476Z,-7.88
2022-12-18T20:27:15.200Z,-7.86
2022-12-18T20:32:19.215Z,-7.82
2022-12-18T20:37:21.151Z,-7.83
2022-12-18T20:42:23.144Z,-7.85
2022-12-18T20:47:26.339Z,-7.77
2022-12-18T20:52:28.567Z,-7.74
2022-12-18T20:57:30.346Z,-7.85
2022-12-18T21:02:32.489Z,-7.84
2022-12-18T21:07:34.424Z,-7.86
2022-12-18T21:13:00.244Z,-7.82
2022-12-18T21:18:01.003Z,-7.73
2022-12-18T21:23:13.210Z,-7.69
2022-12-18T21:28:17.937Z,-7.68
2022-12-18T21:33:19.735Z,-7.65
2022-12-18T21:38:21.584Z,-7.60
2022-12-18T21:43:42.057Z,-7.64
2022-12-18T21:48:44.163Z,-7.68
2022-12-18T21:53:45.877Z,-7.66
2022-12-18T21:58:57.097Z,-7.58
2022-12-18T22:03:59.448Z,-7.46
2022-12-18T22:09:01.246Z,-7.30
2022-12-18T22:14:06.575Z,-7.19
2022-12-18T22:19:11.446Z,-7.16
2022-12-18T22:24:16.462Z,-7.08
2022-12-18T22:29:41.928Z,-7.09
2022-12-18T22:34:43.821Z,-7.04
2022-12-18T22:39:45.760Z,-7.03
2022-12-18T22:44:48.027Z,-6.95
2022-12-18T22:49:49.819Z,-6.90
2022-12-18T22:54:53.750Z,-6.85
2022-12-18T22:59:55.925Z,-6.79
2022-12-18T23:04:57.718Z,-6.68
2022-12-18T23:10:01.199Z,-6.62
2022-12-18T23:15:05.107Z,-6.53
2022-12-18T23:20:07.236Z,-6.44
2022-12-18T23:25:09.527Z,-6.35
2022-12-18T23:30:12.192Z,-6.34
2022-12-18T23:35:15.787Z,-6.30
2022-12-18T23:40:18.153Z,-6.27
2022-12-18T23:45:20.204Z,-6.31
2022-12-18T23:50:26.728Z,-6.46
2022-12-18T23:55:31.771Z,-6.73
